sensor_id;sensor_type;location;lat;lon;timestamp;P1;durP1;ratioP1;P2;durP2;ratioP2
63016;SDS011;50274;45.640;11.756;2022-08-01T00:00:26;5.20;;;2.30;;
63016;SDS011;50274;45.640;11.756;2022-08-01T00:02:52;6.43;;;2.30;;
63016;SDS011;50274;45.640;11.756;2022-08-01T00:05:17;5.40;;;2.10;;
63016;SDS011;50274;45.640;11.756;2022-08-01T00:07:43;4.37;;;2.07;;
63016;SDS011;50274;45.640;11.756;2022-08-01T00:10:11;5.50;;;2.22;;
63016;SDS011;50274;45.640;11.756;2022-08-01T00:12:39;4.82;;;2.22;;
63016;SDS011;50274;45.640;11.756;2022-08-01T00:15:06;5.25;;;2.15;;
63016;SDS011;50274;45.640;11.756;2022-08-01T00:17:33;4.70;;;2.00;;
63016;SDS011;50274;45.640;11.756;2022-08-01T00:19:59;4.65;;;1.98;;
63016;SDS011;50274;45.640;11.756;2022-08-01T00:22:27;5.18;;;2.10;;
63016;SDS011;50274;45.640;11.756;2022-08-01T00:24:53;4.72;;;2.10;;
63016;SDS011;50274;45.640;11.756;2022-08-01T00:27:19;4.50;;;2.23;;
63016;SDS011;50274;45.640;11.756;2022-08-01T00:29:44;5.45;;;2.20;;
63016;SDS011;50274;45.640;11.756;2022-08-01T00:32:10;5.10;;;1.90;;
63016;SDS011;50274;45.640;11.756;2022-08-01T00:34:38;4.40;;;2.13;;
63016;SDS011;50274;45.640;11.756;2022-08-01T00:37:04;5.05;;;2.00;;
63016;SDS011;50274;45.640;11.756;2022-08-01T00:39:30;4.63;;;1.93;;
63016;SDS011;50274;45.640;11.756;2022-08-01T00:41:58;4.65;;;1.92;;
63016;SDS011;50274;45.640;11.756;2022-08-01T00:44:24;5.55;;;2.10;;
63016;SDS011;50274;45.640;11.756;2022-08-01T00:46:50;7.20;;;2.05;;
63016;SDS011;50274;45.640;11.756;2022-08-01T00:49:16;10.17;;;2.50;;
63016;SDS011;50274;45.640;11.756;2022-08-01T00:51:42;6.15;;;2.00;;
63016;SDS011;50274;45.640;11.756;2022-08-01T00:54:07;5.18;;;2.03;;
63016;SDS011;50274;45.640;11.756;2022-08-01T00:56:33;5.20;;;2.30;;
63016;SDS011;50274;45.640;11.756;2022-08-01T00:58:59;4.63;;;2.20;;
63016;SDS011;50274;45.640;11.756;2022-08-01T01:01:25;4.63;;;2.00;;
63016;SDS011;50274;45.640;11.756;2022-08-01T01:03:51;5.73;;;2.03;;
63016;SDS011;50274;45.640;11.756;2022-08-01T01:17:16;4.90;;;2.25;;
63016;SDS011;50274;45.640;11.756;2022-08-01T01:19:47;4.80;;;2.60;;
63016;SDS011;50274;45.640;11.756;2022-08-01T01:22:17;5.13;;;2.10;;
63016;SDS011;50274;45.640;11.756;2022-08-01T01:27:51;5.07;;;2.72;;
63016;SDS011;50274;45.640;11.756;2022-08-01T01:30:30;5.35;;;2.40;;
63016;SDS011;50274;45.640;11.756;2022-08-01T01:33:02;6.00;;;2.50;;
63016;SDS011;50274;45.640;11.756;2022-08-01T01:35:31;7.75;;;2.10;;
63016;SDS011;50274;45.640;11.756;2022-08-01T01:40:46;5.38;;;2.30;;
63016;SDS011;50274;45.640;11.756;2022-08-01T01:43:15;4.97;;;2.00;;
63016;SDS011;50274;45.640;11.756;2022-08-01T01:45:48;4.73;;;2.00;;
63016;SDS011;50274;45.640;11.756;2022-08-01T01:48:17;5.53;;;2.10;;
63016;SDS011;50274;45.640;11.756;2022-08-01T01:50:45;7.25;;;1.83;;
63016;SDS011;50274;45.640;11.756;2022-08-01T01:53:13;3.97;;;1.65;;
63016;SDS011;50274;45.640;11.756;2022-08-01T01:55:43;5.50;;;1.80;;
63016;SDS011;50274;45.640;11.756;2022-08-01T01:58:11;4.50;;;2.37;;
63016;SDS011;50274;45.640;11.756;2022-08-01T02:00:42;5.45;;;2.38;;
63016;SDS011;50274;45.640;11.756;2022-08-01T02:03:11;6.63;;;2.47;;
63016;SDS011;50274;45.640;11.756;2022-08-01T02:05:38;5.22;;;2.60;;
63016;SDS011;50274;45.640;11.756;2022-08-01T02:08:05;5.95;;;2.65;;
63016;SDS011;50274;45.640;11.756;2022-08-01T02:10:33;6.77;;;2.37;;
63016;SDS011;50274;45.640;11.756;2022-08-01T02:13:01;6.60;;;2.28;;
63016;SDS011;50274;45.640;11.756;2022-08-01T02:15:29;6.47;;;2.50;;
63016;SDS011;50274;45.640;11.756;2022-08-01T02:17:56;4.25;;;1.80;;
63016;SDS011;50274;45.640;11.756;2022-08-01T02:20:24;4.28;;;1.80;;
63016;SDS011;50274;45.640;11.756;2022-08-01T02:23:00;4.57;;;1.80;;
63016;SDS011;50274;45.640;11.756;2022-08-01T02:25:36;6.20;;;1.92;;
63016;SDS011;50274;45.640;11.756;2022-08-01T02:28:08;6.20;;;2.00;;
63016;SDS011;50274;45.640;11.756;2022-08-01T02:30:38;4.40;;;1.55;;
63016;SDS011;50274;45.640;11.756;2022-08-01T02:35:37;4.50;;;1.57;;
63016;SDS011;50274;45.640;11.756;2022-08-01T02:38:06;5.20;;;1.80;;
63016;SDS011;50274;45.640;11.756;2022-08-01T02:40:38;4.93;;;1.55;;
63016;SDS011;50274;45.640;11.756;2022-08-01T02:43:10;3.70;;;1.67;;
63016;SDS011;50274;45.640;11.756;2022-08-01T02:45:39;6.72;;;1.88;;
63016;SDS011;50274;45.640;11.756;2022-08-01T02:48:11;4.60;;;2.20;;
63016;SDS011;50274;45.640;11.756;2022-08-01T02:50:39;4.18;;;1.55;;
63016;SDS011;50274;45.640;11.756;2022-08-01T02:53:09;4.55;;;1.50;;
63016;SDS011;50274;45.640;11.756;2022-08-01T02:55:38;5.47;;;1.70;;
63016;SDS011;50274;45.640;11.756;2022-08-01T02:58:06;5.18;;;1.70;;
63016;SDS011;50274;45.640;11.756;2022-08-01T03:00:34;4.60;;;1.73;;
63016;SDS011;50274;45.640;11.756;2022-08-01T03:03:01;5.18;;;1.80;;
63016;SDS011;50274;45.640;11.756;2022-08-01T03:05:28;4.85;;;1.80;;
63016;SDS011;50274;45.640;11.756;2022-08-01T03:07:57;4.97;;;1.70;;
63016;SDS011;50274;45.640;11.756;2022-08-01T03:10:26;4.95;;;2.10;;
63016;SDS011;50274;45.640;11.756;2022-08-01T03:12:53;4.00;;;1.63;;
63016;SDS011;50274;45.640;11.756;2022-08-01T03:15:20;4.57;;;1.75;;
63016;SDS011;50274;45.640;11.756;2022-08-01T03:17:49;5.82;;;1.90;;
63016;SDS011;50274;45.640;11.756;2022-08-01T03:20:16;4.22;;;2.00;;
63016;SDS011;50274;45.640;11.756;2022-08-01T03:22:45;4.88;;;1.67;;
63016;SDS011;50274;45.640;11.756;2022-08-01T03:25:14;4.30;;;1.50;;
63016;SDS011;50274;45.640;11.756;2022-08-01T03:27:45;3.88;;;1.55;;
63016;SDS011;50274;45.640;11.756;2022-08-01T03:30:16;4.70;;;1.70;;
63016;SDS011;50274;45.640;11.756;2022-08-01T03:32:42;3.70;;;1.48;;
63016;SDS011;50274;45.640;11.756;2022-08-01T03:35:08;5.17;;;1.70;;
63016;SDS011;50274;45.640;11.756;2022-08-01T03:37:36;4.75;;;1.77;;
63016;SDS011;50274;45.640;11.756;2022-08-01T03:40:13;4.25;;;1.80;;
63016;SDS011;50274;45.640;11.756;2022-08-01T03:42:47;4.47;;;1.75;;
63016;SDS011;50274;45.640;11.756;2022-08-01T03:45:19;4.00;;;1.60;;
63016;SDS011;50274;45.640;11.756;2022-08-01T03:47:48;7.13;;;1.70;;
63016;SDS011;50274;45.640;11.756;2022-08-01T03:50:19;3.85;;;1.63;;
63016;SDS011;50274;45.640;11.756;2022-08-01T03:52:47;4.60;;;1.55;;
63016;SDS011;50274;45.640;11.756;2022-08-01T03:55:16;4.47;;;1.70;;
63016;SDS011;50274;45.640;11.756;2022-08-01T03:57:44;4.03;;;1.80;;
63016;SDS011;50274;45.640;11.756;2022-08-01T04:00:12;4.27;;;1.73;;
63016;SDS011;50274;45.640;11.756;2022-08-01T04:02:43;5.00;;;1.80;;
63016;SDS011;50274;45.640;11.756;2022-08-01T04:05:15;4.60;;;1.70;;
63016;SDS011;50274;45.640;11.756;2022-08-01T04:07:45;4.32;;;1.60;;
63016;SDS011;50274;45.640;11.756;2022-08-01T04:10:12;5.32;;;1.85;;
63016;SDS011;50274;45.640;11.756;2022-08-01T04:12:38;4.20;;;1.80;;
63016;SDS011;50274;45.640;11.756;2022-08-01T04:15:04;5.07;;;1.67;;
63016;SDS011;50274;45.640;11.756;2022-08-01T04:17:31;4.53;;;1.52;;
63016;SDS011;50274;45.640;11.756;2022-08-01T04:19:57;5.50;;;1.90;;
63016;SDS011;50274;45.640;11.756;2022-08-01T04:22:23;4.00;;;1.67;;
63016;SDS011;50274;45.640;11.756;2022-08-01T04:24:49;4.47;;;1.52;;
63016;SDS011;50274;45.640;11.756;2022-08-01T04:27:22;7.65;;;1.85;;
63016;SDS011;50274;45.640;11.756;2022-08-01T04:29:53;5.35;;;1.90;;
63016;SDS011;50274;45.640;11.756;2022-08-01T04:32:23;3.80;;;1.53;;
63016;SDS011;50274;45.640;11.756;2022-08-01T04:34:52;3.92;;;1.48;;
63016;SDS011;50274;45.640;11.756;2022-08-01T04:37:22;4.68;;;1.60;;
63016;SDS011;50274;45.640;11.756;2022-08-01T04:39:50;5.82;;;1.63;;
63016;SDS011;50274;45.640;11.756;2022-08-01T04:42:19;4.43;;;1.30;;
63016;SDS011;50274;45.640;11.756;2022-08-01T04:44:45;4.40;;;1.33;;
63016;SDS011;50274;45.640;11.756;2022-08-01T04:47:11;4.82;;;1.40;;
63016;SDS011;50274;45.640;11.756;2022-08-01T04:49:38;8.05;;;1.52;;
63016;SDS011;50274;45.640;11.756;2022-08-01T04:52:05;4.10;;;1.70;;
63016;SDS011;50274;45.640;11.756;2022-08-01T04:54:32;5.73;;;1.80;;
63016;SDS011;50274;45.640;11.756;2022-08-01T04:57:02;5.20;;;1.52;;
63016;SDS011;50274;45.640;11.756;2022-08-01T04:59:29;4.93;;;1.30;;
63016;SDS011;50274;45.640;11.756;2022-08-01T05:02:04;4.70;;;1.33;;
63016;SDS011;50274;45.640;11.756;2022-08-01T05:04:36;7.65;;;1.70;;
63016;SDS011;50274;45.640;11.756;2022-08-01T05:07:03;6.03;;;1.67;;
63016;SDS011;50274;45.640;11.756;2022-08-01T05:09:29;4.70;;;1.42;;
63016;SDS011;50274;45.640;11.756;2022-08-01T05:11:56;6.30;;;1.80;;
63016;SDS011;50274;45.640;11.756;2022-08-01T05:14:24;4.78;;;1.80;;
63016;SDS011;50274;45.640;11.756;2022-08-01T05:16:50;4.60;;;1.55;;
63016;SDS011;50274;45.640;11.756;2022-08-01T05:19:17;4.97;;;1.60;;
63016;SDS011;50274;45.640;11.756;2022-08-01T05:21:42;6.05;;;1.90;;
63016;SDS011;50274;45.640;11.756;2022-08-01T05:24:08;7.40;;;1.77;;
63016;SDS011;50274;45.640;11.756;2022-08-01T05:26:34;6.60;;;1.70;;
63016;SDS011;50274;45.640;11.756;2022-08-01T05:29:00;4.32;;;1.60;;
63016;SDS011;50274;45.640;11.756;2022-08-01T05:31:26;6.63;;;1.65;;
63016;SDS011;50274;45.640;11.756;2022-08-01T05:33:51;6.80;;;1.83;;
63016;SDS011;50274;45.640;11.756;2022-08-01T05:36:17;7.57;;;1.92;;
63016;SDS011;50274;45.640;11.756;2022-08-01T05:38:43;6.77;;;1.60;;
63016;SDS011;50274;45.640;11.756;2022-08-01T05:41:09;5.93;;;1.80;;
63016;SDS011;50274;45.640;11.756;2022-08-01T05:43:36;5.05;;;1.42;;
63016;SDS011;50274;45.640;11.756;2022-08-01T05:46:01;5.60;;;1.87;;
63016;SDS011;50274;45.640;11.756;2022-08-01T05:48:27;6.40;;;1.75;;
63016;SDS011;50274;45.640;11.756;2022-08-01T05:50:53;4.65;;;1.20;;
63016;SDS011;50274;45.640;11.756;2022-08-01T05:53:19;4.38;;;1.58;;
63016;SDS011;50274;45.640;11.756;2022-08-01T05:55:45;4.73;;;1.70;;
63016;SDS011;50274;45.640;11.756;2022-08-01T05:58:12;4.30;;;1.50;;
63016;SDS011;50274;45.640;11.756;2022-08-01T06:00:38;5.38;;;1.50;;
63016;SDS011;50274;45.640;11.756;2022-08-01T06:03:04;5.97;;;3.08;;
63016;SDS011;50274;45.640;11.756;2022-08-01T06:05:30;5.70;;;2.28;;
63016;SDS011;50274;45.640;11.756;2022-08-01T06:07:55;5.93;;;1.97;;
63016;SDS011;50274;45.640;11.756;2022-08-01T06:10:23;6.25;;;3.90;;
63016;SDS011;50274;45.640;11.756;2022-08-01T06:12:48;5.80;;;3.22;;
63016;SDS011;50274;45.640;11.756;2022-08-01T06:15:14;5.73;;;2.73;;
63016;SDS011;50274;45.640;11.756;2022-08-01T06:17:40;7.63;;;2.40;;
63016;SDS011;50274;45.640;11.756;2022-08-01T06:20:06;4.05;;;1.83;;
63016;SDS011;50274;45.640;11.756;2022-08-01T06:22:33;4.70;;;1.57;;
63016;SDS011;50274;45.640;11.756;2022-08-01T06:24:59;7.13;;;1.70;;
63016;SDS011;50274;45.640;11.756;2022-08-01T06:27:24;5.53;;;2.00;;
63016;SDS011;50274;45.640;11.756;2022-08-01T06:29:51;5.22;;;2.00;;
63016;SDS011;50274;45.640;11.756;2022-08-01T06:32:22;4.90;;;1.80;;
63016;SDS011;50274;45.640;11.756;2022-08-01T06:34:50;4.55;;;1.63;;
63016;SDS011;50274;45.640;11.756;2022-08-01T06:37:16;7.25;;;1.90;;
63016;SDS011;50274;45.640;11.756;2022-08-01T06:39:42;6.10;;;2.10;;
63016;SDS011;50274;45.640;11.756;2022-08-01T06:42:08;4.53;;;2.00;;
63016;SDS011;50274;45.640;11.756;2022-08-01T06:44:34;4.93;;;1.60;;
63016;SDS011;50274;45.640;11.756;2022-08-01T06:47:00;5.95;;;1.70;;
63016;SDS011;50274;45.640;11.756;2022-08-01T06:49:26;4.90;;;2.00;;
63016;SDS011;50274;45.640;11.756;2022-08-01T06:51:52;4.10;;;1.67;;
63016;SDS011;50274;45.640;11.756;2022-08-01T06:54:17;5.45;;;2.08;;
63016;SDS011;50274;45.640;11.756;2022-08-01T06:56:44;5.10;;;1.80;;
63016;SDS011;50274;45.640;11.756;2022-08-01T06:59:10;5.18;;;2.05;;
63016;SDS011;50274;45.640;11.756;2022-08-01T07:01:35;5.07;;;1.67;;
63016;SDS011;50274;45.640;11.756;2022-08-01T07:04:01;5.80;;;2.03;;
63016;SDS011;50274;45.640;11.756;2022-08-01T07:06:27;6.25;;;1.92;;
63016;SDS011;50274;45.640;11.756;2022-08-01T07:08:53;4.30;;;1.85;;
63016;SDS011;50274;45.640;11.756;2022-08-01T07:11:20;4.75;;;1.70;;
63016;SDS011;50274;45.640;11.756;2022-08-01T07:13:47;4.88;;;2.05;;
63016;SDS011;50274;45.640;11.756;2022-08-01T07:16:14;6.60;;;2.03;;
63016;SDS011;50274;45.640;11.756;2022-08-01T07:18:41;4.53;;;1.80;;
63016;SDS011;50274;45.640;11.756;2022-08-01T07:21:07;5.25;;;2.17;;
63016;SDS011;50274;45.640;11.756;2022-08-01T07:23:34;5.35;;;2.20;;
63016;SDS011;50274;45.640;11.756;2022-08-01T07:26:00;4.47;;;2.00;;
63016;SDS011;50274;45.640;11.756;2022-08-01T07:28:28;6.73;;;2.50;;
63016;SDS011;50274;45.640;11.756;2022-08-01T07:30:54;7.20;;;1.90;;
63016;SDS011;50274;45.640;11.756;2022-08-01T07:33:20;4.20;;;1.70;;
63016;SDS011;50274;45.640;11.756;2022-08-01T07:35:48;9.35;;;2.20;;
63016;SDS011;50274;45.640;11.756;2022-08-01T07:38:14;4.33;;;1.53;;
63016;SDS011;50274;45.640;11.756;2022-08-01T07:40:42;6.70;;;1.60;;
63016;SDS011;50274;45.640;11.756;2022-08-01T07:43:08;5.78;;;1.80;;
63016;SDS011;50274;45.640;11.756;2022-08-01T07:45:35;5.05;;;1.85;;
63016;SDS011;50274;45.640;11.756;2022-08-01T07:48:04;4.57;;;1.70;;
63016;SDS011;50274;45.640;11.756;2022-08-01T07:50:30;6.82;;;1.98;;
63016;SDS011;50274;45.640;11.756;2022-08-01T07:52:57;7.93;;;1.80;;
63016;SDS011;50274;45.640;11.756;2022-08-01T07:55:23;5.30;;;1.80;;
63016;SDS011;50274;45.640;11.756;2022-08-01T07:57:49;6.83;;;1.80;;
63016;SDS011;50274;45.640;11.756;2022-08-01T08:00:15;5.50;;;2.00;;
63016;SDS011;50274;45.640;11.756;2022-08-01T08:02:41;4.32;;;1.70;;
63016;SDS011;50274;45.640;11.756;2022-08-01T08:05:11;4.00;;;1.83;;
63016;SDS011;50274;45.640;11.756;2022-08-01T08:07:42;6.75;;;1.92;;
63016;SDS011;50274;45.640;11.756;2022-08-01T08:10:08;4.70;;;1.73;;
63016;SDS011;50274;45.640;11.756;2022-08-01T08:12:34;4.18;;;1.58;;
63016;SDS011;50274;45.640;11.756;2022-08-01T08:15:00;6.43;;;1.87;;
63016;SDS011;50274;45.640;11.756;2022-08-01T08:17:26;7.93;;;2.37;;
63016;SDS011;50274;45.640;11.756;2022-08-01T08:19:52;4.50;;;1.90;;
63016;SDS011;50274;45.640;11.756;2022-08-01T08:22:18;5.78;;;2.08;;
63016;SDS011;50274;45.640;11.756;2022-08-01T08:24:44;5.90;;;1.90;;
63016;SDS011;50274;45.640;11.756;2022-08-01T08:27:10;7.33;;;2.27;;
63016;SDS011;50274;45.640;11.756;2022-08-01T08:29:36;6.55;;;1.80;;
63016;SDS011;50274;45.640;11.756;2022-08-01T08:32:02;4.55;;;1.88;;
63016;SDS011;50274;45.640;11.756;2022-08-01T08:34:28;7.47;;;1.80;;
63016;SDS011;50274;45.640;11.756;2022-08-01T08:36:55;6.97;;;2.25;;
63016;SDS011;50274;45.640;11.756;2022-08-01T08:39:22;5.90;;;1.88;;
63016;SDS011;50274;45.640;11.756;2022-08-01T08:41:49;7.15;;;2.20;;
63016;SDS011;50274;45.640;11.756;2022-08-01T08:44:15;6.07;;;2.30;;
63016;SDS011;50274;45.640;11.756;2022-08-01T08:46:44;5.90;;;1.57;;
63016;SDS011;50274;45.640;11.756;2022-08-01T08:49:18;5.18;;;2.15;;
63016;SDS011;50274;45.640;11.756;2022-08-01T08:51:47;4.30;;;1.95;;
63016;SDS011;50274;45.640;11.756;2022-08-01T08:54:15;4.88;;;1.98;;
63016;SDS011;50274;45.640;11.756;2022-08-01T08:56:43;5.40;;;1.95;;
63016;SDS011;50274;45.640;11.756;2022-08-01T08:59:11;7.83;;;2.43;;
63016;SDS011;50274;45.640;11.756;2022-08-01T09:01:38;4.28;;;1.95;;
63016;SDS011;50274;45.640;11.756;2022-08-01T09:04:04;6.03;;;1.77;;
63016;SDS011;50274;45.640;11.756;2022-08-01T09:06:31;5.90;;;1.70;;
63016;SDS011;50274;45.640;11.756;2022-08-01T09:08:58;6.22;;;1.80;;
63016;SDS011;50274;45.640;11.756;2022-08-01T09:11:24;6.07;;;1.47;;
63016;SDS011;50274;45.640;11.756;2022-08-01T09:16:32;4.22;;;1.50;;
63016;SDS011;50274;45.640;11.756;2022-08-01T09:19:12;4.72;;;1.58;;
63016;SDS011;50274;45.640;11.756;2022-08-01T09:21:55;6.10;;;1.58;;
63016;SDS011;50274;45.640;11.756;2022-08-01T09:24:24;7.73;;;1.60;;
63016;SDS011;50274;45.640;11.756;2022-08-01T09:26:51;4.68;;;2.10;;
63016;SDS011;50274;45.640;11.756;2022-08-01T09:29:19;5.53;;;1.77;;
63016;SDS011;50274;45.640;11.756;2022-08-01T09:31:47;4.18;;;1.30;;
63016;SDS011;50274;45.640;11.756;2022-08-01T09:34:15;5.05;;;1.80;;
63016;SDS011;50274;45.640;11.756;2022-08-01T09:39:22;5.75;;;1.70;;
63016;SDS011;50274;45.640;11.756;2022-08-01T09:41:53;4.95;;;1.52;;
63016;SDS011;50274;45.640;11.756;2022-08-01T09:47:04;4.25;;;1.50;;
63016;SDS011;50274;45.640;11.756;2022-08-01T09:49:30;4.23;;;1.50;;
63016;SDS011;50274;45.640;11.756;2022-08-01T09:52:14;5.13;;;1.40;;
63016;SDS011;50274;45.640;11.756;2022-08-01T09:54:42;3.30;;;1.25;;
63016;SDS011;50274;45.640;11.756;2022-08-01T09:57:13;4.68;;;1.90;;
63016;SDS011;50274;45.640;11.756;2022-08-01T09:59:43;5.43;;;1.83;;
63016;SDS011;50274;45.640;11.756;2022-08-01T10:02:25;4.85;;;1.75;;
63016;SDS011;50274;45.640;11.756;2022-08-01T10:04:59;6.53;;;1.67;;
63016;SDS011;50274;45.640;11.756;2022-08-01T10:07:26;3.75;;;1.13;;
63016;SDS011;50274;45.640;11.756;2022-08-01T10:09:52;4.15;;;1.60;;
63016;SDS011;50274;45.640;11.756;2022-08-01T10:12:18;5.13;;;1.40;;
63016;SDS011;50274;45.640;11.756;2022-08-01T10:14:47;4.45;;;1.40;;
63016;SDS011;50274;45.640;11.756;2022-08-01T10:17:15;4.47;;;1.52;;
63016;SDS011;50274;45.640;11.756;2022-08-01T10:19:42;3.42;;;1.33;;
63016;SDS011;50274;45.640;11.756;2022-08-01T10:22:10;8.33;;;1.67;;
63016;SDS011;50274;45.640;11.756;2022-08-01T10:24:41;4.38;;;1.73;;
63016;SDS011;50274;45.640;11.756;2022-08-01T10:27:08;6.40;;;2.17;;
63016;SDS011;50274;45.640;11.756;2022-08-01T10:29:42;5.70;;;1.63;;
63016;SDS011;50274;45.640;11.756;2022-08-01T10:32:14;3.58;;;1.30;;
63016;SDS011;50274;45.640;11.756;2022-08-01T10:34:42;4.27;;;1.40;;
63016;SDS011;50274;45.640;11.756;2022-08-01T10:37:08;47.60;;;10.98;;
63016;SDS011;50274;45.640;11.756;2022-08-01T10:39:34;100.15;;;26.02;;
63016;SDS011;50274;45.640;11.756;2022-08-01T10:42:01;33.45;;;9.95;;
63016;SDS011;50274;45.640;11.756;2022-08-01T10:44:28;18.55;;;5.18;;
63016;SDS011;50274;45.640;11.756;2022-08-01T10:49:56;4.68;;;1.35;;
63016;SDS011;50274;45.640;11.756;2022-08-01T10:52:32;4.47;;;1.30;;
63016;SDS011;50274;45.640;11.756;2022-08-01T10:55:09;5.10;;;1.33;;
63016;SDS011;50274;45.640;11.756;2022-08-01T10:57:42;3.97;;;1.33;;
63016;SDS011;50274;45.640;11.756;2022-08-01T11:00:22;4.33;;;1.13;;
63016;SDS011;50274;45.640;11.756;2022-08-01T11:03:00;4.32;;;1.27;;
63016;SDS011;50274;45.640;11.756;2022-08-01T11:05:30;3.38;;;1.02;;
63016;SDS011;50274;45.640;11.756;2022-08-01T11:07:58;5.25;;;1.38;;
63016;SDS011;50274;45.640;11.756;2022-08-01T11:10:38;5.40;;;1.30;;
63016;SDS011;50274;45.640;11.756;2022-08-01T11:13:08;4.77;;;1.40;;
63016;SDS011;50274;45.640;11.756;2022-08-01T11:15:36;3.80;;;1.13;;
63016;SDS011;50274;45.640;11.756;2022-08-01T11:20:57;6.20;;;1.33;;
63016;SDS011;50274;45.640;11.756;2022-08-01T11:23:28;5.60;;;1.40;;
63016;SDS011;50274;45.640;11.756;2022-08-01T11:28:27;4.65;;;1.48;;
63016;SDS011;50274;45.640;11.756;2022-08-01T11:31:24;4.40;;;1.30;;
63016;SDS011;50274;45.640;11.756;2022-08-01T11:38:35;4.18;;;1.27;;
63016;SDS011;50274;45.640;11.756;2022-08-01T11:41:36;7.15;;;1.38;;
63016;SDS011;50274;45.640;11.756;2022-08-01T11:43:56;6.83;;;1.57;;
63016;SDS011;50274;45.640;11.756;2022-08-01T11:46:50;3.78;;;1.20;;
63016;SDS011;50274;45.640;11.756;2022-08-01T11:49:26;5.13;;;1.52;;
63016;SDS011;50274;45.640;11.756;2022-08-01T11:52:01;3.92;;;1.52;;
63016;SDS011;50274;45.640;11.756;2022-08-01T11:54:46;4.05;;;1.30;;
63016;SDS011;50274;45.640;11.756;2022-08-01T11:57:20;4.97;;;1.53;;
63016;SDS011;50274;45.640;11.756;2022-08-01T11:59:52;4.15;;;1.40;;
63016;SDS011;50274;45.640;11.756;2022-08-01T12:02:33;5.75;;;1.50;;
63016;SDS011;50274;45.640;11.756;2022-08-01T12:05:00;3.95;;;1.35;;
63016;SDS011;50274;45.640;11.756;2022-08-01T12:07:30;6.50;;;1.45;;
63016;SDS011;50274;45.640;11.756;2022-08-01T12:10:04;4.20;;;1.60;;
63016;SDS011;50274;45.640;11.756;2022-08-01T12:12:48;4.47;;;1.60;;
63016;SDS011;50274;45.640;11.756;2022-08-01T12:15:19;3.40;;;1.30;;
63016;SDS011;50274;45.640;11.756;2022-08-01T12:17:50;5.43;;;1.55;;
63016;SDS011;50274;45.640;11.756;2022-08-01T12:20:21;4.90;;;1.50;;
63016;SDS011;50274;45.640;11.756;2022-08-01T12:22:52;8.23;;;1.40;;
63016;SDS011;50274;45.640;11.756;2022-08-01T12:25:22;6.07;;;1.65;;
63016;SDS011;50274;45.640;11.756;2022-08-01T12:27:48;4.18;;;1.40;;
63016;SDS011;50274;45.640;11.756;2022-08-01T12:30:15;5.95;;;1.67;;
63016;SDS011;50274;45.640;11.756;2022-08-01T12:32:46;4.25;;;1.30;;
63016;SDS011;50274;45.640;11.756;2022-08-01T12:35:14;4.00;;;1.40;;
63016;SDS011;50274;45.640;11.756;2022-08-01T12:37:48;3.60;;;1.30;;
63016;SDS011;50274;45.640;11.756;2022-08-01T12:40:27;4.80;;;1.55;;
63016;SDS011;50274;45.640;11.756;2022-08-01T12:42:55;9.43;;;1.80;;
63016;SDS011;50274;45.640;11.756;2022-08-01T12:45:30;3.88;;;1.33;;
63016;SDS011;50274;45.640;11.756;2022-08-01T12:47:57;4.80;;;1.20;;
63016;SDS011;50274;45.640;11.756;2022-08-01T12:50:25;4.70;;;1.50;;
63016;SDS011;50274;45.640;11.756;2022-08-01T12:52:55;5.88;;;1.60;;
63016;SDS011;50274;45.640;11.756;2022-08-01T12:55:23;3.80;;;1.30;;
63016;SDS011;50274;45.640;11.756;2022-08-01T12:58:04;5.78;;;1.48;;
63016;SDS011;50274;45.640;11.756;2022-08-01T13:00:32;4.40;;;1.40;;
63016;SDS011;50274;45.640;11.756;2022-08-01T13:03:03;5.38;;;1.50;;
63016;SDS011;50274;45.640;11.756;2022-08-01T13:05:41;5.10;;;1.38;;
63016;SDS011;50274;45.640;11.756;2022-08-01T13:08:10;3.53;;;1.00;;
63016;SDS011;50274;45.640;11.756;2022-08-01T13:10:37;4.03;;;1.20;;
63016;SDS011;50274;45.640;11.756;2022-08-01T13:13:03;5.93;;;1.50;;
63016;SDS011;50274;45.640;11.756;2022-08-01T13:15:30;4.75;;;1.27;;
63016;SDS011;50274;45.640;11.756;2022-08-01T13:18:00;4.65;;;1.40;;
63016;SDS011;50274;45.640;11.756;2022-08-01T13:20:46;4.32;;;1.17;;
63016;SDS011;50274;45.640;11.756;2022-08-01T13:23:13;4.03;;;1.10;;
63016;SDS011;50274;45.640;11.756;2022-08-01T13:25:54;4.40;;;1.23;;
63016;SDS011;50274;45.640;11.756;2022-08-01T13:28:22;4.97;;;1.38;;
63016;SDS011;50274;45.640;11.756;2022-08-01T13:33:26;4.05;;;1.23;;
63016;SDS011;50274;45.640;11.756;2022-08-01T13:35:54;4.20;;;1.30;;
63016;SDS011;50274;45.640;11.756;2022-08-01T13:38:21;6.37;;;1.30;;
63016;SDS011;50274;45.640;11.756;2022-08-01T13:41:06;3.63;;;1.10;;
63016;SDS011;50274;45.640;11.756;2022-08-01T13:43:41;5.18;;;1.30;;
63016;SDS011;50274;45.640;11.756;2022-08-01T13:46:07;4.22;;;1.20;;
63016;SDS011;50274;45.640;11.756;2022-08-01T13:48:33;4.10;;;1.00;;
63016;SDS011;50274;45.640;11.756;2022-08-01T13:50:59;5.65;;;1.38;;
63016;SDS011;50274;45.640;11.756;2022-08-01T13:53:25;4.75;;;1.20;;
63016;SDS011;50274;45.640;11.756;2022-08-01T13:55:51;3.75;;;1.10;;
63016;SDS011;50274;45.640;11.756;2022-08-01T13:58:17;3.43;;;1.20;;
63016;SDS011;50274;45.640;11.756;2022-08-01T14:00:43;5.05;;;1.30;;
63016;SDS011;50274;45.640;11.756;2022-08-01T14:03:11;4.50;;;1.00;;
63016;SDS011;50274;45.640;11.756;2022-08-01T14:05:37;3.55;;;0.95;;
63016;SDS011;50274;45.640;11.756;2022-08-01T14:08:04;3.83;;;1.10;;
63016;SDS011;50274;45.640;11.756;2022-08-01T14:10:30;3.78;;;1.10;;
63016;SDS011;50274;45.640;11.756;2022-08-01T14:12:57;4.10;;;1.27;;
63016;SDS011;50274;45.640;11.756;2022-08-01T14:15:23;4.35;;;1.00;;
63016;SDS011;50274;45.640;11.756;2022-08-01T14:17:50;5.05;;;1.00;;
63016;SDS011;50274;45.640;11.756;2022-08-01T14:20:16;3.80;;;1.00;;
63016;SDS011;50274;45.640;11.756;2022-08-01T14:22:47;4.20;;;0.93;;
63016;SDS011;50274;45.640;11.756;2022-08-01T14:25:14;2.75;;;0.90;;
63016;SDS011;50274;45.640;11.756;2022-08-01T14:27:40;5.50;;;1.35;;
63016;SDS011;50274;45.640;11.756;2022-08-01T14:30:23;3.35;;;1.13;;
63016;SDS011;50274;45.640;11.756;2022-08-01T14:32:49;3.43;;;1.20;;
63016;SDS011;50274;45.640;11.756;2022-08-01T14:35:15;3.78;;;1.10;;
63016;SDS011;50274;45.640;11.756;2022-08-01T14:37:40;5.60;;;1.02;;
63016;SDS011;50274;45.640;11.756;2022-08-01T14:40:07;3.55;;;1.25;;
63016;SDS011;50274;45.640;11.756;2022-08-01T14:42:35;4.33;;;1.10;;
63016;SDS011;50274;45.640;11.756;2022-08-01T14:45:02;5.13;;;1.20;;
63016;SDS011;50274;45.640;11.756;2022-08-01T14:47:33;5.95;;;1.30;;
63016;SDS011;50274;45.640;11.756;2022-08-01T14:50:07;6.43;;;1.30;;
63016;SDS011;50274;45.640;11.756;2022-08-01T14:52:35;5.15;;;1.40;;
63016;SDS011;50274;45.640;11.756;2022-08-01T14:55:02;3.67;;;1.20;;
63016;SDS011;50274;45.640;11.756;2022-08-01T14:57:29;3.28;;;0.90;;
63016;SDS011;50274;45.640;11.756;2022-08-01T14:59:55;4.85;;;1.20;;
63016;SDS011;50274;45.640;11.756;2022-08-01T15:02:21;4.57;;;1.27;;
63016;SDS011;50274;45.640;11.756;2022-08-01T15:04:47;5.10;;;1.00;;
63016;SDS011;50274;45.640;11.756;2022-08-01T15:07:14;4.60;;;1.00;;
63016;SDS011;50274;45.640;11.756;2022-08-01T15:09:41;3.50;;;1.10;;
63016;SDS011;50274;45.640;11.756;2022-08-01T15:12:07;7.78;;;1.30;;
63016;SDS011;50274;45.640;11.756;2022-08-01T15:14:34;4.00;;;1.10;;
63016;SDS011;50274;45.640;11.756;2022-08-01T15:19:55;4.83;;;1.40;;
63016;SDS011;50274;45.640;11.756;2022-08-01T15:22:23;4.57;;;1.52;;
63016;SDS011;50274;45.640;11.756;2022-08-01T15:24:49;4.35;;;1.80;;
63016;SDS011;50274;45.640;11.756;2022-08-01T15:27:16;5.32;;;1.40;;